sensor_id;sensor_type;location;lat;lon;timestamp;temperature;humidity
16643;DHT22;8435;52.184;5.406;2024-02-16T00:02:08;14.50;99.90
16643;DHT22;8435;52.184;5.406;2024-02-16T00:04:35;14.50;99.90
16643;DHT22;8435;52.184;5.406;2024-02-16T00:07:01;14.50;99.90
16643;DHT22;8435;52.184;5.406;2024-02-16T00:09:28;14.50;99.90
16643;DHT22;8435;52.184;5.406;2024-02-16T00:11:55;14.50;99.90
16643;DHT22;8435;52.184;5.406;2024-02-16T00:14:22;14.50;99.90
16643;DHT22;8435;52.184;5.406;2024-02-16T00:16:50;14.50;99.90
16643;DHT22;8435;52.184;5.406;2024-02-16T00:19:17;14.50;99.90
16643;DHT22;8435;52.184;5.406;2024-02-16T00:21:43;14.50;99.90
16643;DHT22;8435;52.184;5.406;2024-02-16T00:24:10;14.50;99.90
16643;DHT22;8435;52.184;5.406;2024-02-16T00:26:37;14.40;99.90
16643;DHT22;8435;52.184;5.406;2024-02-16T00:29:05;14.40;99.90
16643;DHT22;8435;52.184;5.406;2024-02-16T00:31:32;14.40;99.90
16643;DHT22;8435;52.184;5.406;2024-02-16T00:34:02;14.40;99.90
16643;DHT22;8435;52.184;5.406;2024-02-16T00:36:29;14.40;99.90
16643;DHT22;8435;52.184;5.406;2024-02-16T00:38:56;14.30;99.90
16643;DHT22;8435;52.184;5.406;2024-02-16T00:41:24;14.30;99.90
16643;DHT22;8435;52.184;5.406;2024-02-16T00:43:51;14.30;99.90
16643;DHT22;8435;52.184;5.406;2024-02-16T00:46:18;14.20;99.90
16643;DHT22;8435;52.184;5.406;2024-02-16T00:48:44;14.20;99.90
16643;DHT22;8435;52.184;5.406;2024-02-16T00:51:13;14.20;99.90
16643;DHT22;8435;52.184;5.406;2024-02-16T00:53:40;14.20;99.90
16643;DHT22;8435;52.184;5.406;2024-02-16T00:56:07;14.20;99.90
16643;DHT22;8435;52.184;5.406;2024-02-16T00:58:34;14.20;99.90
16643;DHT22;8435;52.184;5.406;2024-02-16T01:01:01;14.20;99.90
16643;DHT22;8435;52.184;5.406;2024-02-16T01:03:31;14.20;99.90
16643;DHT22;8435;52.184;5.406;2024-02-16T01:05:58;14.20;99.90
16643;DHT22;8435;52.184;5.406;2024-02-16T01:08:26;14.20;99.90
16643;DHT22;8435;52.184;5.406;2024-02-16T01:10:53;14.20;99.90
16643;DHT22;8435;52.184;5.406;2024-02-16T01:13:20;14.20;99.90
16643;DHT22;8435;52.184;5.406;2024-02-16T01:15:47;14.10;99.90
16643;DHT22;8435;52.184;5.406;2024-02-16T01:18:13;14.20;99.90
16643;DHT22;8435;52.184;5.406;2024-02-16T01:20:41;14.10;99.90
16643;DHT22;8435;52.184;5.406;2024-02-16T01:23:07;14.10;99.90
16643;DHT22;8435;52.184;5.406;2024-02-16T01:25:38;14.00;99.90
16643;DHT22;8435;52.184;5.406;2024-02-16T01:28:06;14.10;99.90
16643;DHT22;8435;52.184;5.406;2024-02-16T01:30:33;14.10;99.90
16643;DHT22;8435;52.184;5.406;2024-02-16T01:33:00;14.10;99.90
16643;DHT22;8435;52.184;5.406;2024-02-16T01:35:28;14.10;99.90
16643;DHT22;8435;52.184;5.406;2024-02-16T01:37:55;14.10;99.90
16643;DHT22;8435;52.184;5.406;2024-02-16T01:40:21;14.00;99.90
16643;DHT22;8435;52.184;5.406;2024-02-16T01:42:53;14.10;99.90
16643;DHT22;8435;52.184;5.406;2024-02-16T01:45:20;14.00;99.90
16643;DHT22;8435;52.184;5.406;2024-02-16T01:47:49;14.10;99.90
16643;DHT22;8435;52.184;5.406;2024-02-16T01:50:18;14.00;99.90
16643;DHT22;8435;52.184;5.406;2024-02-16T01:52:47;14.10;99.90
16643;DHT22;8435;52.184;5.406;2024-02-16T01:55:15;14.00;99.90
16643;DHT22;8435;52.184;5.406;2024-02-16T01:57:43;14.10;99.90
16643;DHT22;8435;52.184;5.406;2024-02-16T02:00:13;14.00;99.90
16643;DHT22;8435;52.184;5.406;2024-02-16T02:02:40;14.00;99.90
16643;DHT22;8435;52.184;5.406;2024-02-16T02:05:10;14.00;99.90
16643;DHT22;8435;52.184;5.406;2024-02-16T02:07:37;14.00;99.90
16643;DHT22;8435;52.184;5.406;2024-02-16T02:10:04;14.00;99.90
16643;DHT22;8435;52.184;5.406;2024-02-16T02:12:31;14.00;99.90
16643;DHT22;8435;52.184;5.406;2024-02-16T02:15:00;14.00;99.90
16643;DHT22;8435;52.184;5.406;2024-02-16T02:17:29;14.00;99.90
16643;DHT22;8435;52.184;5.406;2024-02-16T02:19:56;14.00;99.90
16643;DHT22;8435;52.184;5.406;2024-02-16T02:22:24;13.90;99.90
16643;DHT22;8435;52.184;5.406;2024-02-16T02:24:52;14.00;99.90
16643;DHT22;8435;52.184;5.406;2024-02-16T02:27:20;14.00;99.90
16643;DHT22;8435;52.184;5.406;2024-02-16T02:29:47;14.00;99.90
16643;DHT22;8435;52.184;5.406;2024-02-16T02:32:17;14.00;99.90
16643;DHT22;8435;52.184;5.406;2024-02-16T02:34:44;14.00;99.90
16643;DHT22;8435;52.184;5.406;2024-02-16T02:37:11;14.00;99.90
16643;DHT22;8435;52.184;5.406;2024-02-16T02:39:39;14.00;99.90
16643;DHT22;8435;52.184;5.406;2024-02-16T02:42:06;14.00;99.90
16643;DHT22;8435;52.184;5.406;2024-02-16T02:44:33;13.90;99.90
16643;DHT22;8435;52.184;5.406;2024-02-16T02:47:00;13.90;99.90
16643;DHT22;8435;52.184;5.406;2024-02-16T02:49:27;13.80;99.90
16643;DHT22;8435;52.184;5.406;2024-02-16T02:51:54;13.80;99.90
16643;DHT22;8435;52.184;5.406;2024-02-16T02:54:20;13.80;99.90
16643;DHT22;8435;52.184;5.406;2024-02-16T02:56:48;13.80;99.90
16643;DHT22;8435;52.184;5.406;2024-02-16T02:59:15;13.70;99.90
16643;DHT22;8435;52.184;5.406;2024-02-16T03:01:42;13.70;99.90
16643;DHT22;8435;52.184;5.406;2024-02-16T03:04:10;13.70;99.90
16643;DHT22;8435;52.184;5.406;2024-02-16T03:06:36;13.70;99.90
16643;DHT22;8435;52.184;5.406;2024-02-16T03:09:03;13.70;99.90
16643;DHT22;8435;52.184;5.406;2024-02-16T03:11:30;13.70;99.90
16643;DHT22;8435;52.184;5.406;2024-02-16T03:14:00;13.70;99.90
16643;DHT22;8435;52.184;5.406;2024-02-16T03:16:28;13.70;99.90
16643;DHT22;8435;52.184;5.406;2024-02-16T03:18:55;13.70;99.90
16643;DHT22;8435;52.184;5.406;2024-02-16T03:21:22;13.70;99.90
16643;DHT22;8435;52.184;5.406;2024-02-16T03:23:48;13.70;99.90
16643;DHT22;8435;52.184;5.406;2024-02-16T03:26:19;13.70;99.90
16643;DHT22;8435;52.184;5.406;2024-02-16T03:28:47;13.70;99.90
16643;DHT22;8435;52.184;5.406;2024-02-16T03:31:21;13.70;99.90
16643;DHT22;8435;52.184;5.406;2024-02-16T03:33:49;13.60;99.90
16643;DHT22;8435;52.184;5.406;2024-02-16T03:36:17;13.60;99.90
16643;DHT22;8435;52.184;5.406;2024-02-16T03:38:44;13.60;99.90
16643;DHT22;8435;52.184;5.406;2024-02-16T03:41:13;13.60;99.90
16643;DHT22;8435;52.184;5.406;2024-02-16T03:43:41;13.60;99.90
16643;DHT22;8435;52.184;5.406;2024-02-16T03:46:09;13.60;99.90
16643;DHT22;8435;52.184;5.406;2024-02-16T03:48:37;13.50;99.90
16643;DHT22;8435;52.184;5.406;2024-02-16T03:51:04;13.60;99.90
16643;DHT22;8435;52.184;5.406;2024-02-16T03:53:31;13.50;99.90
16643;DHT22;8435;52.184;5.406;2024-02-16T03:56:07;13.50;99.90
16643;DHT22;8435;52.184;5.406;2024-02-16T03:58:36;13.50;99.90
16643;DHT22;8435;52.184;5.406;2024-02-16T04:01:03;13.50;99.90
16643;DHT22;8435;52.184;5.406;2024-02-16T04:03:30;13.40;99.90
16643;DHT22;8435;52.184;5.406;2024-02-16T04:05:58;13.40;99.90
16643;DHT22;8435;52.184;5.406;2024-02-16T04:08:26;13.40;99.90
16643;DHT22;8435;52.184;5.406;2024-02-16T04:10:53;13.40;99.90
16643;DHT22;8435;52.184;5.406;2024-02-16T04:13:20;13.40;99.90
16643;DHT22;8435;52.184;5.406;2024-02-16T04:15:47;13.30;99.90
16643;DHT22;8435;52.184;5.406;2024-02-16T04:18:13;13.30;99.90
16643;DHT22;8435;52.184;5.406;2024-02-16T04:20:40;13.30;99.90
16643;DHT22;8435;52.184;5.406;2024-02-16T04:23:09;13.40;99.90
16643;DHT22;8435;52.184;5.406;2024-02-16T04:25:35;13.40;99.90
16643;DHT22;8435;52.184;5.406;2024-02-16T04:28:01;13.40;99.90
16643;DHT22;8435;52.184;5.406;2024-02-16T04:30:28;13.30;99.90
16643;DHT22;8435;52.184;5.406;2024-02-16T04:32:54;13.40;99.90
16643;DHT22;8435;52.184;5.406;2024-02-16T04:35:21;13.40;99.90
16643;DHT22;8435;52.184;5.406;2024-02-16T04:37:48;13.40;99.90
16643;DHT22;8435;52.184;5.406;2024-02-16T04:40:18;13.40;99.90
16643;DHT22;8435;52.184;5.406;2024-02-16T04:42:45;13.40;99.90
16643;DHT22;8435;52.184;5.406;2024-02-16T04:45:12;13.50;99.90
16643;DHT22;8435;52.184;5.406;2024-02-16T04:47:39;13.40;99.90
16643;DHT22;8435;52.184;5.406;2024-02-16T04:50:07;13.50;99.90
16643;DHT22;8435;52.184;5.406;2024-02-16T04:52:39;13.50;99.90
16643;DHT22;8435;52.184;5.406;2024-02-16T04:55:06;13.40;99.90
16643;DHT22;8435;52.184;5.406;2024-02-16T04:57:35;13.40;99.90
16643;DHT22;8435;52.184;5.406;2024-02-16T05:00:02;13.40;99.90
16643;DHT22;8435;52.184;5.406;2024-02-16T05:02:29;13.50;99.90
16643;DHT22;8435;52.184;5.406;2024-02-16T05:04:56;13.50;99.90
16643;DHT22;8435;52.184;5.406;2024-02-16T05:07:23;13.50;99.90
16643;DHT22;8435;52.184;5.406;2024-02-16T05:09:49;13.50;99.90
16643;DHT22;8435;52.184;5.406;2024-02-16T05:12:21;13.50;99.90
16643;DHT22;8435;52.184;5.406;2024-02-16T05:14:50;13.50;99.90
16643;DHT22;8435;52.184;5.406;2024-02-16T05:17:17;13.50;99.90
16643;DHT22;8435;52.184;5.406;2024-02-16T05:19:44;13.50;99.90
16643;DHT22;8435;52.184;5.406;2024-02-16T05:22:11;13.50;99.90
16643;DHT22;8435;52.184;5.406;2024-02-16T05:24:38;13.40;99.90
16643;DHT22;8435;52.184;5.406;2024-02-16T05:27:04;13.40;99.90
16643;DHT22;8435;52.184;5.406;2024-02-16T05:29:31;13.40;99.90
16643;DHT22;8435;52.184;5.406;2024-02-16T05:31:59;13.30;99.90
16643;DHT22;8435;52.184;5.406;2024-02-16T05:34:26;13.30;99.90
16643;DHT22;8435;52.184;5.406;2024-02-16T05:36:57;13.30;99.90
16643;DHT22;8435;52.184;5.406;2024-02-16T05:39:25;13.30;99.90
16643;DHT22;8435;52.184;5.406;2024-02-16T05:41:56;13.30;99.90
16643;DHT22;8435;52.184;5.406;2024-02-16T05:44:23;13.30;99.90
16643;DHT22;8435;52.184;5.406;2024-02-16T05:46:50;13.30;99.90
16643;DHT22;8435;52.184;5.406;2024-02-16T05:49:18;13.20;99.90
16643;DHT22;8435;52.184;5.406;2024-02-16T05:51:45;13.30;99.90
16643;DHT22;8435;52.184;5.406;2024-02-16T05:54:32;13.20;99.90
16643;DHT22;8435;52.184;5.406;2024-02-16T05:56:59;13.20;99.90
16643;DHT22;8435;52.184;5.406;2024-02-16T05:59:26;13.30;99.90
16643;DHT22;8435;52.184;5.406;2024-02-16T06:01:55;13.20;99.90
16643;DHT22;8435;52.184;5.406;2024-02-16T06:04:24;13.20;99.90
16643;DHT22;8435;52.184;5.406;2024-02-16T06:06:51;13.30;99.90
16643;DHT22;8435;52.184;5.406;2024-02-16T06:09:19;13.20;99.90
16643;DHT22;8435;52.184;5.406;2024-02-16T06:11:46;13.20;99.90
16643;DHT22;8435;52.184;5.406;2024-02-16T06:14:14;13.30;99.90
16643;DHT22;8435;52.184;5.406;2024-02-16T06:16:41;13.30;99.90
16643;DHT22;8435;52.184;5.406;2024-02-16T06:19:08;13.30;99.90
16643;DHT22;8435;52.184;5.406;2024-02-16T06:21:37;13.30;99.90
16643;DHT22;8435;52.184;5.406;2024-02-16T06:24:04;13.20;99.90
16643;DHT22;8435;52.184;5.406;2024-02-16T06:26:31;13.20;99.90
16643;DHT22;8435;52.184;5.406;2024-02-16T06:28:58;13.20;99.90
16643;DHT22;8435;52.184;5.406;2024-02-16T06:31:24;13.20;99.90
16643;DHT22;8435;52.184;5.406;2024-02-16T06:33:52;13.20;99.90
16643;DHT22;8435;52.184;5.406;2024-02-16T06:36:19;13.30;99.90
16643;DHT22;8435;52.184;5.406;2024-02-16T06:38:47;13.30;99.90
16643;DHT22;8435;52.184;5.406;2024-02-16T06:41:14;13.30;99.90
16643;DHT22;8435;52.184;5.406;2024-02-16T06:43:41;13.30;99.90
16643;DHT22;8435;52.184;5.406;2024-02-16T06:46:11;13.40;99.90
16643;DHT22;8435;52.184;5.406;2024-02-16T06:48:38;13.40;99.90
16643;DHT22;8435;52.184;5.406;2024-02-16T06:51:05;13.40;99.90
16643;DHT22;8435;52.184;5.406;2024-02-16T06:53:32;13.50;99.90
16643;DHT22;8435;52.184;5.406;2024-02-16T06:56:00;13.40;99.90
16643;DHT22;8435;52.184;5.406;2024-02-16T06:58:29;13.40;99.90
16643;DHT22;8435;52.184;5.406;2024-02-16T07:00:56;13.50;99.90
16643;DHT22;8435;52.184;5.406;2024-02-16T07:03:28;13.50;99.90
16643;DHT22;8435;52.184;5.406;2024-02-16T07:05:55;13.50;99.90
16643;DHT22;8435;52.184;5.406;2024-02-16T07:08:22;13.50;99.90
16643;DHT22;8435;52.184;5.406;2024-02-16T07:10:49;13.50;99.90
16643;DHT22;8435;52.184;5.406;2024-02-16T07:13:19;13.50;99.90
16643;DHT22;8435;52.184;5.406;2024-02-16T07:15:46;13.60;99.90
16643;DHT22;8435;52.184;5.406;2024-02-16T07:18:13;13.60;99.90
16643;DHT22;8435;52.184;5.406;2024-02-16T07:20:40;13.60;99.90
16643;DHT22;8435;52.184;5.406;2024-02-16T07:23:07;13.70;99.90
16643;DHT22;8435;52.184;5.406;2024-02-16T07:25:35;13.70;99.90
16643;DHT22;8435;52.184;5.406;2024-02-16T07:28:02;13.70;99.90
16643;DHT22;8435;52.184;5.406;2024-02-16T07:30:30;13.70;99.90
16643;DHT22;8435;52.184;5.406;2024-02-16T07:32:56;13.70;99.90
16643;DHT22;8435;52.184;5.406;2024-02-16T07:35:23;13.70;99.90
16643;DHT22;8435;52.184;5.406;2024-02-16T07:37:50;13.80;99.90
16643;DHT22;8435;52.184;5.406;2024-02-16T07:40:19;13.80;99.90
16643;DHT22;8435;52.184;5.406;2024-02-16T07:42:48;13.80;99.90
16643;DHT22;8435;52.184;5.406;2024-02-16T07:45:15;13.80;99.90
16643;DHT22;8435;52.184;5.406;2024-02-16T07:47:43;13.80;99.90
16643;DHT22;8435;52.184;5.406;2024-02-16T07:50:10;13.80;99.90
16643;DHT22;8435;52.184;5.406;2024-02-16T07:52:38;13.80;99.90
16643;DHT22;8435;52.184;5.406;2024-02-16T07:55:06;13.90;99.90
16643;DHT22;8435;52.184;5.406;2024-02-16T07:57:32;13.90;99.90
16643;DHT22;8435;52.184;5.406;2024-02-16T08:00:04;13.90;99.90
16643;DHT22;8435;52.184;5.406;2024-02-16T08:02:31;13.90;99.90
16643;DHT22;8435;52.184;5.406;2024-02-16T08:05:00;14.00;99.90
16643;DHT22;8435;52.184;5.406;2024-02-16T08:07:27;14.00;99.90
16643;DHT22;8435;52.184;5.406;2024-02-16T08:09:53;14.00;99.90
16643;DHT22;8435;52.184;5.406;2024-02-16T08:12:20;14.00;99.90
16643;DHT22;8435;52.184;5.406;2024-02-16T08:14:47;14.10;99.90
16643;DHT22;8435;52.184;5.406;2024-02-16T08:17:14;14.20;99.90
16643;DHT22;8435;52.184;5.406;2024-02-16T08:19:41;14.20;99.90
16643;DHT22;8435;52.184;5.406;2024-02-16T08:22:09;14.30;99.90
16643;DHT22;8435;52.184;5.406;2024-02-16T08:24:36;14.40;99.90
16643;DHT22;8435;52.184;5.406;2024-02-16T08:27:05;14.50;99.90
16643;DHT22;8435;52.184;5.406;2024-02-16T08:29:31;14.50;99.90
16643;DHT22;8435;52.184;5.406;2024-02-16T08:31:58;14.60;99.90
16643;DHT22;8435;52.184;5.406;2024-02-16T08:34:25;14.60;99.90
16643;DHT22;8435;52.184;5.406;2024-02-16T08:36:52;14.70;99.90
16643;DHT22;8435;52.184;5.406;2024-02-16T08:39:22;14.80;99.90
16643;DHT22;8435;52.184;5.406;2024-02-16T08:41:50;14.80;99.90
16643;DHT22;8435;52.184;5.406;2024-02-16T08:44:17;14.90;99.90
16643;DHT22;8435;52.184;5.406;2024-02-16T08:46:44;14.90;99.90
16643;DHT22;8435;52.184;5.406;2024-02-16T08:49:11;15.00;99.90
16643;DHT22;8435;52.184;5.406;2024-02-16T08:51:38;15.10;99.90
16643;DHT22;8435;52.184;5.406;2024-02-16T08:54:05;15.20;99.90
16643;DHT22;8435;52.184;5.406;2024-02-16T08:56:35;15.30;99.90
16643;DHT22;8435;52.184;5.406;2024-02-16T08:59:04;15.40;99.90
16643;DHT22;8435;52.184;5.406;2024-02-16T09:01:32;15.50;99.90
16643;DHT22;8435;52.184;5.406;2024-02-16T09:03:58;15.60;99.90
16643;DHT22;8435;52.184;5.406;2024-02-16T09:06:29;15.70;99.90
16643;DHT22;8435;52.184;5.406;2024-02-16T09:08:56;15.80;99.90
16643;DHT22;8435;52.184;5.406;2024-02-16T09:11:23;15.80;99.90
16643;DHT22;8435;52.184;5.406;2024-02-16T09:13:51;15.90;99.90
16643;DHT22;8435;52.184;5.406;2024-02-16T09:16:18;16.00;99.90
16643;DHT22;8435;52.184;5.406;2024-02-16T09:18:48;16.00;99.90
16643;DHT22;8435;52.184;5.406;2024-02-16T09:21:15;16.10;99.90
16643;DHT22;8435;52.184;5.406;2024-02-16T09:23:42;16.00;99.90
16643;DHT22;8435;52.184;5.406;2024-02-16T09:26:08;16.10;99.90
16643;DHT22;8435;52.184;5.406;2024-02-16T09:28:39;16.10;99.90
16643;DHT22;8435;52.184;5.406;2024-02-16T09:31:08;16.00;99.90
16643;DHT22;8435;52.184;5.406;2024-02-16T09:33:35;16.00;99.90
16643;DHT22;8435;52.184;5.406;2024-02-16T09:36:02;16.00;99.90
16643;DHT22;8435;52.184;5.406;2024-02-16T09:38:30;16.00;99.90
16643;DHT22;8435;52.184;5.406;2024-02-16T09:40:57;15.90;99.90
16643;DHT22;8435;52.184;5.406;2024-02-16T09:43:25;15.90;99.90
16643;DHT22;8435;52.184;5.406;2024-02-16T09:45:54;15.90;99.90
16643;DHT22;8435;52.184;5.406;2024-02-16T09:48:22;15.90;99.90
16643;DHT22;8435;52.184;5.406;2024-02-16T09:50:50;15.90;99.90
16643;DHT22;8435;52.184;5.406;2024-02-16T09:53:19;15.90;99.90
16643;DHT22;8435;52.184;5.406;2024-02-16T09:55:50;15.90;99.90
16643;DHT22;8435;52.184;5.406;2024-02-16T09:58:19;15.90;99.90
16643;DHT22;8435;52.184;5.406;2024-02-16T10:00:50;15.90;99.90
16643;DHT22;8435;52.184;5.406;2024-02-16T10:03:26;15.90;99.90
16643;DHT22;8435;52.184;5.406;2024-02-16T10:06:04;15.90;99.90
16643;DHT22;8435;52.184;5.406;2024-02-16T10:08:34;15.90;99.90
16643;DHT22;8435;52.184;5.406;2024-02-16T10:11:04;15.90;99.90
16643;DHT22;8435;52.184;5.406;2024-02-16T10:13:31;15.90;99.90
16643;DHT22;8435;52.184;5.406;2024-02-16T10:16:08;16.00;99.90
16643;DHT22;8435;52.184;5.406;2024-02-16T10:18:36;15.90;99.90
16643;DHT22;8435;52.184;5.406;2024-02-16T10:21:04;15.90;99.90
16643;DHT22;8435;52.184;5.406;2024-02-16T10:23:30;15.90;99.90
16643;DHT22;8435;52.184;5.406;2024-02-16T10:25:58;15.90;99.90
16643;DHT22;8435;52.184;5.406;2024-02-16T10:28:27;15.80;99.90
16643;DHT22;8435;52.184;5.406;2024-02-16T10:30:58;15.80;99.90
16643;DHT22;8435;52.184;5.406;2024-02-16T10:33:29;15.80;99.90
16643;DHT22;8435;52.184;5.406;2024-02-16T10:35:57;15.80;99.90
16643;DHT22;8435;52.184;5.406;2024-02-16T10:38:25;15.70;99.90
16643;DHT22;8435;52.184;5.406;2024-02-16T10:40:53;15.70;99.90
16643;DHT22;8435;52.184;5.406;2024-02-16T10:43:23;15.70;99.90
16643;DHT22;8435;52.184;5.406;2024-02-16T10:45:51;15.60;99.90
16643;DHT22;8435;52.184;5.406;2024-02-16T10:48:18;15.60;99.90
16643;DHT22;8435;52.184;5.406;2024-02-16T10:50:46;15.60;99.90
16643;DHT22;8435;52.184;5.406;2024-02-16T10:53:19;15.50;99.90
16643;DHT22;8435;52.184;5.406;2024-02-16T10:55:49;15.50;99.90
16643;DHT22;8435;52.184;5.406;2024-02-16T10:58:17;15.50;99.90
16643;DHT22;8435;52.184;5.406;2024-02-16T11:00:51;15.50;99.90
16643;DHT22;8435;52.184;5.406;2024-02-16T11:03:22;15.40;99.90
16643;DHT22;8435;52.184;5.406;2024-02-16T11:05:50;15.40;99.90
16643;DHT22;8435;52.184;5.406;2024-02-16T11:08:19;15.40;99.90
16643;DHT22;8435;52.184;5.406;2024-02-16T11:11:00;15.40;99.90
16643;DHT22;8435;52.184;5.406;2024-02-16T11:13:32;15.30;99.90
16643;DHT22;8435;52.184;5.406;2024-02-16T11:16:00;15.30;99.90
16643;DHT22;8435;52.184;5.406;2024-02-16T11:18:28;15.30;99.90
16643;DHT22;8435;52.184;5.406;2024-02-16T11:20:59;15.30;99.90
16643;DHT22;8435;52.184;5.406;2024-02-16T11:23:28;15.30;99.90
16643;DHT22;8435;52.184;5.406;2024-02-16T11:26:00;15.30;99.90
16643;DHT22;8435;52.184;5.406;2024-02-16T11:28:28;15.20;99.90
16643;DHT22;8435;52.184;5.406;2024-02-16T11:30:55;15.20;99.90
16643;DHT22;8435;52.184;5.406;2024-02-16T11:33:22;15.30;99.90
16643;DHT22;8435;52.184;5.406;2024-02-16T11:35:55;15.30;99.90
16643;DHT22;8435;52.184;5.406;2024-02-16T11:38:22;15.30;99.90
16643;DHT22;8435;52.184;5.406;2024-02-16T11:40:55;15.30;99.90
16643;DHT22;8435;52.184;5.406;2024-02-16T11:43:22;15.30;99.90
16643;DHT22;8435;52.184;5.406;2024-02-16T11:45:49;15.30;99.90
16643;DHT22;8435;52.184;5.406;2024-02-16T11:48:19;15.20;99.90
16643;DHT22;8435;52.184;5.406;2024-02-16T11:50:47;15.30;99.90
16643;DHT22;8435;52.184;5.406;2024-02-16T11:53:16;15.30;99.90
16643;DHT22;8435;52.184;5.406;2024-02-16T11:55:46;15.20;99.90
16643;DHT22;8435;52.184;5.406;2024-02-16T11:58:16;15.30;99.90
16643;DHT22;8435;52.184;5.406;2024-02-16T12:00:43;15.30;99.90
16643;DHT22;8435;52.184;5.406;2024-02-16T12:03:10;15.30;99.90
16643;DHT22;8435;52.184;5.406;2024-02-16T12:05:37;15.30;99.90
16643;DHT22;8435;52.184;5.406;2024-02-16T12:08:06;15.30;99.90
16643;DHT22;8435;52.184;5.406;2024-02-16T12:10:33;15.30;99.90
16643;DHT22;8435;52.184;5.406;2024-02-16T12:13:00;15.30;99.90
16643;DHT22;8435;52.184;5.406;2024-02-16T12:15:28;15.20;99.90
16643;DHT22;8435;52.184;5.406;2024-02-16T12:17:59;15.20;99.90
16643;DHT22;8435;52.184;5.406;2024-02-16T12:20:29;15.20;99.90
16643;DHT22;8435;52.184;5.406;2024-02-16T12:22:57;15.20;99.90
16643;DHT22;8435;52.184;5.406;2024-02-16T12:25:24;15.20;99.90
16643;DHT22;8435;52.184;5.406;2024-02-16T12:27:51;15.20;99.90
16643;DHT22;8435;52.184;5.406;2024-02-16T12:30:18;15.10;99.90
16643;DHT22;8435;52.184;5.406;2024-02-16T12:32:46;15.00;99.90
16643;DHT22;8435;52.184;5.406;2024-02-16T12:35:13;15.00;99.90
16643;DHT22;8435;52.184;5.406;2024-02-16T12:37:41;15.00;99.90
16643;DHT22;8435;52.184;5.406;2024-02-16T12:40:08;14.90;99.90
16643;DHT22;8435;52.184;5.406;2024-02-16T12:42:35;14.90;99.90
16643;DHT22;8435;52.184;5.406;2024-02-16T12:45:02;14.90;99.90
16643;DHT22;8435;52.184;5.406;2024-02-16T12:47:29;14.90;99.90
16643;DHT22;8435;52.184;5.406;2024-02-16T12:49:57;14.90;99.90
16643;DHT22;8435;52.184;5.406;2024-02-16T12:52:24;14.90;99.90
16643;DHT22;8435;52.184;5.406;2024-02-16T12:54:52;14.80;99.90
16643;DHT22;8435;52.184;5.406;2024-02-16T12:57:19;14.90;99.90
16643;DHT22;8435;52.184;5.406;2024-02-16T12:59:46;14.90;99.90
16643;DHT22;8435;52.184;5.406;2024-02-16T13:02:13;14.90;99.90
16643;DHT22;8435;52.184;5.406;2024-02-16T13:04:39;15.00;99.90
16643;DHT22;8435;52.184;5.406;2024-02-16T13:07:10;15.00;99.90
16643;DHT22;8435;52.184;5.406;2024-02-16T13:09:37;15.10;99.90
16643;DHT22;8435;52.184;5.406;2024-02-16T13:12:05;15.10;99.90
16643;DHT22;8435;52.184;5.406;2024-02-16T13:14:31;15.20;99.90
16643;DHT22;8435;52.184;5.406;2024-02-16T13:16:58;15.30;99.90
16643;DHT22;8435;52.184;5.406;2024-02-16T13:19:25;15.30;99.90
16643;DHT22;8435;52.184;5.406;2024-02-16T13:21:52;15.30;99.90
16643;DHT22;8435;52.184;5.406;2024-02-16T13:24:20;15.40;99.90
16643;DHT22;8435;52.184;5.406;2024-02-16T13:26:47;15.40;99.90
16643;DHT22;8435;52.184;5.406;2024-02-16T13:29:13;15.50;99.90
16643;DHT22;8435;52.184;5.406;2024-02-16T13:31:43;15.50;99.90
16643;DHT22;8435;52.184;5.406;2024-02-16T13:34:11;15.50;99.90
16643;DHT22;8435;52.184;5.406;2024-02-16T13:36:40;15.40;99.90
16643;DHT22;8435;52.184;5.406;2024-02-16T13:39:07;15.40;99.90
16643;DHT22;8435;52.184;5.406;2024-02-16T13:41:36;15.40;99.90
16643;DHT22;8435;52.184;5.406;2024-02-16T13:44:03;15.40;99.90
16643;DHT22;8435;52.184;5.406;2024-02-16T13:46:30;15.40;99.90
16643;DHT22;8435;52.184;5.406;2024-02-16T13:48:57;15.30;99.90
16643;DHT22;8435;52.184;5.406;2024-02-16T13:51:24;15.30;99.90
16643;DHT22;8435;52.184;5.406;2024-02-16T13:53:51;15.30;99.90
16643;DHT22;8435;52.184;5.406;2024-02-16T13:56:18;15.30;99.90
16643;DHT22;8435;52.184;5.406;2024-02-16T13:58:46;15.30;99.90
16643;DHT22;8435;52.184;5.406;2024-02-16T14:01:14;15.20;99.90
16643;DHT22;8435;52.184;5.406;2024-02-16T14:03:41;15.20;99.90
16643;DHT22;8435;52.184;5.406;2024-02-16T14:06:08;15.20;99.90
16643;DHT22;8435;52.184;5.406;2024-02-16T14:08:36;15.20;99.90
16643;DHT22;8435;52.184;5.406;2024-02-16T14:11:03;15.20;99.90
16643;DHT22;8435;52.184;5.406;2024-02-16T14:13:30;15.20;99.90
16643;DHT22;8435;52.184;5.406;2024-02-16T14:15:58;15.20;99.90
16643;DHT22;8435;52.184;5.406;2024-02-16T14:18:28;15.20;99.90
16643;DHT22;8435;52.184;5.406;2024-02-16T14:20:55;15.20;99.90
16643;DHT22;8435;52.184;5.406;2024-02-16T14:23:24;15.20;99.90
16643;DHT22;8435;52.184;5.406;2024-02-16T14:25:51;15.20;99.90
16643;DHT22;8435;52.184;5.406;2024-02-16T14:28:18;15.10;99.90
16643;DHT22;8435;52.184;5.406;2024-02-16T14:30:45;15.10;99.90
16643;DHT22;8435;52.184;5.406;2024-02-16T14:33:13;15.10;99.90
16643;DHT22;8435;52.184;5.406;2024-02-16T14:35:42;15.10;99.90
16643;DHT22;8435;52.184;5.406;2024-02-16T14:38:09;15.20;99.90
16643;DHT22;8435;52.184;5.406;2024-02-16T14:40:36;15.20;99.90
16643;DHT22;8435;52.184;5.406;2024-02-16T14:43:03;15.20;99.90
16643;DHT22;8435;52.184;5.406;2024-02-16T14:45:30;15.20;99.90
16643;DHT22;8435;52.184;5.406;2024-02-16T14:47:59;15.20;99.90
16643;DHT22;8435;52.184;5.406;2024-02-16T14:50:27;15.30;99.90
16643;DHT22;8435;52.184;5.406;2024-02-16T14:52:54;15.20;99.90
16643;DHT22;8435;52.184;5.406;2024-02-16T14:55:21;15.20;99.90
16643;DHT22;8435;52.184;5.406;2024-02-16T14:57:48;15.20;99.90
16643;DHT22;8435;52.184;5.406;2024-02-16T15:00:15;15.20;99.90
16643;DHT22;8435;52.184;5.406;2024-02-16T15:02:42;15.20;99.90
16643;DHT22;8435;52.184;5.406;2024-02-16T15:05:09;15.30;99.90
16643;DHT22;8435;52.184;5.406;2024-02-16T15:07:37;15.30;99.90
16643;DHT22;8435;52.184;5.406;2024-02-16T15:10:04;15.20;99.90
16643;DHT22;8435;52.184;5.406;2024-02-16T15:12:31;15.30;99.90
16643;DHT22;8435;52.184;5.406;2024-02-16T15:14:58;15.30;99.90
16643;DHT22;8435;52.184;5.406;2024-02-16T15:17:25;15.30;99.90
16643;DHT22;8435;52.184;5.406;2024-02-16T15:19:53;15.30;99.90
16643;DHT22;8435;52.184;5.406;2024-02-16T15:22:19;15.30;99.90
16643;DHT22;8435;52.184;5.406;2024-02-16T15:24:47;15.30;99.90
16643;DHT22;8435;52.184;5.406;2024-02-16T15:27:14;15.30;99.90
16643;DHT22;8435;52.184;5.406;2024-02-16T15:29:43;15.30;99.90
16643;DHT22;8435;52.184;5.406;2024-02-16T15:32:12;15.30;99.90
16643;DHT22;8435;52.184;5.406;2024-02-16T15:34:38;15.30;99.90
16643;DHT22;8435;52.184;5.406;2024-02-16T15:37:08;15.30;99.90
16643;DHT22;8435;52.184;5.406;2024-02-16T15:39:35;15.30;99.90
16643;DHT22;8435;52.184;5.406;2024-02-16T15:42:04;15.30;99.90
16643;DHT22;8435;52.184;5.406;2024-02-16T15:44:32;15.30;99.90
16643;DHT22;8435;52.184;5.406;2024-02-16T15:47:00;15.30;99.90
16643;DHT22;8435;52.184;5.406;2024-02-16T15:49:31;15.20;99.90